Time;durP1;ratioP1;P1;durP2;ratioP2;P2;SDS_P1;SDS_P2;PMS_P1;PMS_P2;Temp;Humidity;BMP_temperature;BMP_pressure;BME280_temperature;BME280_humidity;BME280_pressure;Samples;Min_cycle;Max_cycle;Signal;HPM_P1;HPM_P2
2021/01/08 00:02:34;;;;;;;;;29.00;27.60;;;;;9.40;41.58;98471.28;6158138;28;125472;-58
2021/01/08 00:05:35;;;;;;;;;26.50;25.00;;;;;9.31;41.73;98467.25;6157332;28;125625;-58
2021/01/08 00:08:37;;;;;;;;;33.00;28.75;;;;;9.27;41.88;98474.97;6157891;28;125285;-58
2021/01/08 00:11:38;;;;;;;;;26.00;23.20;;;;;9.24;41.83;98475.38;6154630;28;126987;-58
2021/01/08 00:14:39;;;;;;;;;30.80;26.80;;;;;9.21;41.83;98470.47;6161118;28;125434;-58
2021/01/08 00:17:41;;;;;;;;;29.00;26.40;;;;;9.14;41.86;98469.69;6148085;28;126524;-58
2021/01/08 00:20:43;;;;;;;;;28.25;27.00;;;;;9.09;41.97;98470.38;6149183;28;126573;-58
2021/01/08 00:23:47;;;;;;;;;36.00;30.00;;;;;9.15;42.02;98468.66;6159596;28;125125;-58
2021/01/08 00:26:48;;;;;;;;;31.50;28.00;;;;;9.14;41.82;98464.31;6150311;28;126751;-58
2021/01/08 00:29:50;;;;;;;;;32.25;26.25;;;;;9.09;42.14;98458.78;6161539;28;127173;-58
2021/01/08 00:32:52;;;;;;;;;28.60;24.20;;;;;9.06;42.16;98470.00;6161651;28;124975;-58
2021/01/08 00:35:54;;;;;;;;;29.40;26.60;;;;;9.11;41.94;98470.16;6161844;28;126844;-58
2021/01/08 00:38:56;;;;;;;;;29.40;28.20;;;;;9.09;42.20;98472.22;6162245;28;128175;-58
2021/01/08 00:41:57;;;;;;;;;32.00;30.00;;;;;9.13;42.38;98473.47;6161954;28;127368;-58
2021/01/08 00:44:59;;;;;;;;;30.20;26.80;;;;;9.16;42.04;98489.13;6152846;28;126013;-58
2021/01/08 00:48:01;;;;;;;;;31.50;27.50;;;;;8.93;41.88;98441.38;6161226;28;125066;-58
2021/01/08 00:51:03;;;;;;;;;29.40;27.00;;;;;9.14;41.85;98477.75;6152625;28;125220;-58
2021/01/08 00:54:05;;;;;;;;;31.00;28.00;;;;;9.07;41.95;98477.03;6145234;28;126240;-58
2021/01/08 00:57:07;;;;;;;;;31.40;29.00;;;;;9.06;42.51;98481.59;6127487;28;126215;-58
2021/01/08 01:00:13;;;;;;;;;28.00;27.25;;;;;9.11;42.61;98486.28;6149186;28;125011;-58
2021/01/08 01:03:18;;;;;;;;;28.60;25.00;;;;;9.08;42.48;98481.38;6160817;28;125601;-59
2021/01/08 01:06:30;;;;;;;;;31.20;26.00;;;;;9.06;42.39;98481.59;6161554;28;127344;-59
2021/01/08 01:09:31;;;;;;;;;29.20;27.20;;;;;8.28;42.10;98348.75;6156632;28;124612;-58
2021/01/08 01:12:33;;;;;;;;;29.00;25.00;;;;;9.08;41.85;98482.19;6123792;28;124246;-58
2021/01/08 01:15:34;;;;;;;;;29.80;26.20;;;;;9.10;41.50;98477.41;6157045;28;125574;-58
2021/01/08 01:18:36;;;;;;;;;29.40;24.00;;;;;9.14;40.96;98481.28;6160910;28;127490;-58
2021/01/08 01:21:41;;;;;;;;;25.50;22.00;;;;;9.19;40.59;98480.63;6161186;28;124534;-58
2021/01/08 01:24:43;;;;;;;;;25.80;22.00;;;;;9.20;40.08;98481.44;6160216;28;126810;-58
2021/01/08 01:27:44;;;;;;;;;24.50;22.00;;;;;9.21;39.75;98475.84;6160789;28;126308;-58
2021/01/08 01:30:47;;;;;;;;;22.60;21.00;;;;;9.23;39.82;98479.16;6160168;28;126104;-57
2021/01/08 01:33:48;;;;;;;;;26.00;20.20;;;;;9.30;39.58;98479.88;6160470;28;124544;-58
2021/01/08 01:36:49;;;;;;;;;24.60;22.00;;;;;9.30;39.62;98471.81;6160293;28;126463;-58
2021/01/08 01:39:51;;;;;;;;;19.60;19.00;;;;;9.31;39.62;98478.84;6153906;28;126971;-58
2021/01/08 01:42:52;;;;;;;;;21.00;18.25;;;;;9.34;39.53;98477.56;6139799;28;125560;-58
2021/01/08 01:45:54;;;;;;;;;22.50;19.00;;;;;9.18;39.60;98453.97;6160168;28;125298;-58
2021/01/08 01:48:55;;;;;;;;;19.20;17.20;;;;;9.32;39.42;98467.03;6160231;28;126665;-58
2021/01/08 01:52:00;;;;;;;;;23.00;18.00;;;;;9.27;39.38;98464.19;6159397;28;126498;-58
2021/01/08 01:55:06;;;;;;;;;21.00;18.00;;;;;9.30;39.42;98471.00;6126230;28;124831;-58
2021/01/08 01:58:07;;;;;;;;;18.00;16.00;;;;;9.27;39.65;98469.59;6159440;28;126065;-58
2021/01/08 02:01:11;;;;;;;;;23.00;20.40;;;;;9.27;39.75;98468.75;6160263;28;127073;-57
2021/01/08 02:04:13;;;;;;;;;20.75;18.75;;;;;9.27;39.75;98452.63;6159847;28;123536;-58
2021/01/08 02:07:16;;;;;;;;;19.00;18.00;;;;;9.25;39.69;98458.22;6159402;28;126544;-58
2021/01/08 02:10:21;;;;;;;;;20.00;19.00;;;;;9.22;39.94;98439.84;6159743;28;124907;-58
2021/01/08 02:13:29;;;;;;;;;17.75;15.00;;;;;9.21;39.51;98450.81;6147021;28;125900;-58
2021/01/08 02:16:34;;;;;;;;;20.00;18.00;;;;;9.14;39.76;98448.19;6160058;28;124577;-58
2021/01/08 02:19:42;;;;;;;;;18.00;17.00;;;;;8.60;39.86;98354.91;6159624;28;127022;-58
2021/01/08 02:22:49;;;;;;;;;19.60;17.00;;;;;9.12;39.85;98447.59;6159479;28;126874;-58
2021/01/08 02:25:52;;;;;;;;;18.00;15.75;;;;;9.08;39.98;98432.97;6159515;28;125560;-58
2021/01/08 02:28:54;;;;;;;;;16.20;15.60;;;;;9.10;39.98;98439.75;6157118;28;125176;-58
2021/01/08 02:31:56;;;;;;;;;18.40;16.60;;;;;9.12;40.14;98434.97;6158967;28;128154;-58
2021/01/08 02:34:57;;;;;;;;;18.40;16.00;;;;;9.14;40.30;98432.88;6159011;28;126131;-58
2021/01/08 02:38:01;;;;;;;;;17.00;15.00;;;;;9.16;40.10;98437.22;6148585;28;126137;-58
2021/01/08 02:41:06;;;;;;;;;15.20;14.00;;;;;9.18;40.16;98430.59;6159717;28;126033;-58
2021/01/08 02:44:09;;;;;;;;;16.00;15.00;;;;;9.20;40.04;98427.66;6144303;28;124100;-58
2021/01/08 02:47:10;;;;;;;;;14.80;14.00;;;;;9.18;40.20;98427.06;6159388;28;127383;-58
2021/01/08 02:50:14;;;;;;;;;20.00;18.00;;;;;9.18;40.54;98425.19;6150139;28;126273;-58
2021/01/08 02:53:20;;;;;;;;;17.20;15.00;;;;;9.18;40.44;98427.91;6152604;28;126533;-61
2021/01/08 02:56:26;;;;;;;;;17.40;15.80;;;;;9.18;40.33;98424.38;6159300;28;125916;-58
2021/01/08 02:59:28;;;;;;;;;15.50;14.00;;;;;8.89;40.38;98378.38;6159281;28;126048;-58
2021/01/08 03:02:31;;;;;;;;;16.00;15.00;;;;;9.21;40.53;98423.91;6158773;28;126927;-58
2021/01/08 03:05:34;;;;;;;;;17.80;15.00;;;;;9.24;40.37;98429.66;6159161;28;126292;-58
2021/01/08 03:08:36;;;;;;;;;15.00;14.25;;;;;9.29;40.18;98434.38;6158802;28;125354;-58
2021/01/08 03:11:38;;;;;;;;;18.25;15.00;;;;;9.19;40.15;98415.28;6159178;28;126271;-58
2021/01/08 03:14:40;;;;;;;;;18.00;16.40;;;;;9.28;40.24;98432.75;6159301;28;126559;-58
2021/01/08 03:17:41;;;;;;;;;18.60;15.60;;;;;9.31;40.34;98429.59;6158299;28;124326;-57
2021/01/08 03:20:43;;;;;;;;;17.60;15.60;;;;;9.30;40.41;98433.34;6158924;28;125184;-57
2021/01/08 03:23:44;;;;;;;;;17.00;15.00;;;;;9.31;40.58;98430.44;6158813;28;127567;-58
2021/01/08 03:26:46;;;;;;;;;15.60;14.40;;;;;9.33;40.35;98439.09;6158460;28;125102;-58
2021/01/08 03:29:47;;;;;;;;;15.80;13.80;;;;;9.32;40.25;98436.63;6158677;28;127742;-58
2021/01/08 03:32:49;;;;;;;;;17.00;15.60;;;;;9.31;40.25;98441.19;6158487;28;125810;-61
2021/01/08 03:35:50;;;;;;;;;14.20;13.20;;;;;9.32;40.37;98442.84;6142279;28;125172;-59
2021/01/08 03:38:51;;;;;;;;;15.40;14.40;;;;;9.32;40.27;98445.53;6158706;28;126997;-59
2021/01/08 03:41:53;;;;;;;;;14.00;12.60;;;;;9.33;40.59;98438.28;6158244;28;127105;-58
2021/01/08 03:44:54;;;;;;;;;17.00;16.00;;;;;9.13;40.61;98419.66;6141245;28;126252;-58
2021/01/08 03:47:56;;;;;;;;;16.00;13.20;;;;;9.33;40.68;98444.50;6155089;28;125292;-58
2021/01/08 03:50:57;;;;;;;;;14.20;12.60;;;;;9.34;40.38;98438.03;6162967;28;127895;-58
2021/01/08 03:53:59;;;;;;;;;14.60;14.00;;;;;9.37;40.56;98443.00;6162757;28;126738;-58
2021/01/08 03:57:00;;;;;;;;;13.33;12.33;;;;;9.41;40.49;98438.78;6146658;28;126464;-58
2021/01/08 04:00:05;;;;;;;;;14.60;12.60;;;;;9.40;40.22;98444.38;6162012;28;125341;-58
2021/01/08 04:03:06;;;;;;;;;14.00;13.00;;;;;9.38;40.44;98444.59;6145488;28;125703;-58
2021/01/08 04:06:08;;;;;;;;;12.40;12.40;;;;;9.34;40.64;98446.09;6162646;28;125376;-58
2021/01/08 04:09:09;;;;;;;;;15.00;13.00;;;;;9.31;40.56;98435.81;6151396;28;125281;-58
2021/01/08 04:12:11;;;;;;;;;15.00;14.00;;;;;9.14;40.75;98403.28;6161899;28;127142;-58
2021/01/08 04:15:12;;;;;;;;;12.20;11.00;;;;;9.36;40.85;98438.66;6161990;28;126577;-58
2021/01/08 04:18:14;;;;;;;;;16.25;15.00;;;;;9.35;40.85;98430.78;6162259;28;126509;-58
2021/01/08 04:21:15;;;;;;;;;15.00;12.40;;;;;9.38;40.72;98441.91;6162002;28;125463;-58
2021/01/08 04:24:17;;;;;;;;;14.60;13.40;;;;;9.35;40.68;98439.69;6162090;28;127033;-58
2021/01/08 04:27:18;;;;;;;;;15.00;12.00;;;;;9.33;40.75;98425.66;6161871;28;128694;-58
2021/01/08 04:30:23;;;;;;;;;14.00;12.00;;;;;9.31;40.73;98432.28;6161377;28;126143;-57
2021/01/08 04:33:24;;;;;;;;;14.00;12.60;;;;;9.31;40.98;98427.72;6153805;28;124783;-58
2021/01/08 04:36:26;;;;;;;;;15.00;14.00;;;;;9.30;40.85;98439.53;6161938;28;127441;-58
2021/01/08 04:39:27;;;;;;;;;15.00;13.00;;;;;9.28;41.04;98436.25;6161865;28;127222;-57
2021/01/08 04:42:33;;;;;;;;;17.40;14.00;;;;;9.26;40.96;98449.09;6161564;28;125340;-58
2021/01/08 04:45:34;;;;;;;;;14.00;13.00;;;;;9.17;41.29;98434.31;6159759;28;126028;-58
2021/01/08 04:48:37;;;;;;;;;13.00;13.00;;;;;9.24;41.93;98432.34;6148601;28;127056;-58
2021/01/08 04:51:40;;;;;;;;;13.20;12.20;;;;;9.18;42.30;98430.59;6158418;28;125465;-58
2021/01/08 04:54:42;;;;;;;;;13.60;12.60;;;;;9.25;42.81;98431.31;6161452;28;127609;-58
2021/01/08 04:57:50;;;;;;;;;17.40;16.40;;;;;9.30;42.88;98433.34;6161057;28;125265;-58
2021/01/08 05:00:53;;;;;;;;;15.00;14.00;;;;;9.31;42.73;98440.34;6161490;28;124059;-58
2021/01/08 05:03:54;;;;;;;;;17.50;16.00;;;;;9.33;42.07;98438.28;6148217;28;125315;-59
2021/01/08 05:06:56;;;;;;;;;14.60;13.60;;;;;9.34;41.93;98437.22;6161042;28;125202;-59
2021/01/08 05:10:01;;;;;;;;;15.00;13.00;;;;;9.34;41.94;98432.66;6161021;28;127430;-58
2021/01/08 05:13:02;;;;;;;;;17.75;15.00;;;;;9.34;42.26;98434.53;6160900;28;124659;-58
2021/01/08 05:16:04;;;;;;;;;14.00;12.75;;;;;9.25;41.51;98414.34;6141983;28;126915;-59
2021/01/08 05:19:06;;;;;;;;;14.00;13.00;;;;;9.39;42.22;98442.75;6152825;28;125165;-59
2021/01/08 05:22:07;;;;;;;;;20.00;16.00;;;;;9.19;42.21;98399.94;6160752;28;126577;-59
2021/01/08 05:25:11;;;;;;;;;16.00;16.00;;;;;9.39;41.36;98448.94;6160909;28;126377;-59
2021/01/08 05:28:16;;;;;;;;;15.80;12.60;;;;;9.40;41.26;98439.00;6161033;28;127639;-59
2021/01/08 05:31:19;;;;;;;;;16.60;13.00;;;;;9.24;42.01;98420.78;6158321;28;124575;-59
2021/01/08 05:34:26;;;;;;;;;15.00;14.00;;;;;9.38;41.87;98438.44;6150816;28;125685;-59
2021/01/08 05:37:27;;;;;;;;;12.00;12.00;;;;;9.37;42.27;98436.78;6161036;28;124905;-62
2021/01/08 05:40:29;;;;;;;;;13.60;13.00;;;;;9.39;42.14;98440.03;6160953;28;126723;-59
2021/01/08 05:43:30;;;;;;;;;15.40;14.00;;;;;9.39;42.77;98432.81;6161353;28;125229;-58
2021/01/08 05:46:37;;;;;;;;;15.40;13.80;;;;;9.41;42.93;98438.78;6153302;28;125672;-58
2021/01/08 05:49:39;;;;;;;;;15.75;14.00;;;;;9.32;42.77;98426.69;6159865;28;125032;-59
2021/01/08 05:52:44;;;;;;;;;16.00;14.00;;;;;9.42;42.81;98435.06;6160521;28;123960;-58
2021/01/08 05:55:46;;;;;;;;;19.00;17.00;;;;;9.27;42.47;98418.47;6159678;28;124254;-58
2021/01/08 05:58:49;;;;;;;;;15.00;13.00;;;;;9.41;43.24;98438.78;6159516;28;126141;-59
2021/01/08 06:01:52;;;;;;;;;16.75;15.00;;;;;9.42;43.50;98440.44;6159527;28;124759;-58
2021/01/08 06:04:53;;;;;;;;;17.00;16.00;;;;;9.43;43.03;98447.44;6160235;28;126324;-59
2021/01/08 06:07:59;;;;;;;;;17.00;14.00;;;;;9.43;43.17;98450.13;6159493;28;125303;-59
2021/01/08 06:11:01;;;;;;;;;18.60;17.00;;;;;9.42;43.36;98440.44;6158537;28;126899;-59
2021/01/08 06:14:06;;;;;;;;;19.40;16.00;;;;;9.45;42.73;98450.75;6158195;28;126616;-59
2021/01/08 06:17:07;;;;;;;;;17.00;14.00;;;;;9.40;42.24;98445.22;6143240;28;126106;-58
2021/01/08 06:20:11;;;;;;;;;17.00;14.80;;;;;9.41;42.93;98451.41;6160160;28;125536;-58
2021/01/08 06:23:35;;;;;;;;;16.00;14.00;;;;;9.39;42.36;98440.88;6159453;28;127193;-58
2021/01/08 06:26:44;;;;;;;;;16.60;15.00;;;;;9.40;41.94;98439.00;6158523;28;126042;-58
2021/01/08 06:29:54;;;;;;;;;15.00;14.00;;;;;9.38;42.53;98441.13;6153780;28;125120;-58
2021/01/08 06:33:04;;;;;;;;;17.00;15.00;;;;;9.38;42.86;98441.91;6151162;28;127172;-58
2021/01/08 06:36:18;;;;;;;;;17.00;16.00;;;;;9.35;43.13;98438.84;6143429;28;124861;-58
2021/01/08 06:39:22;;;;;;;;;16.00;14.00;;;;;9.34;42.23;98440.72;6159479;28;126128;-58
2021/01/08 06:42:28;;;;;;;;;16.00;15.00;;;;;9.36;43.02;98445.88;6158538;28;125097;-58
2021/01/08 06:45:30;;;;;;;;;19.00;17.00;;;;;9.29;43.03;98432.50;6145339;28;124970;-59
2021/01/08 06:48:32;;;;;;;;;12.80;12.80;;;;;9.38;42.74;98447.28;6159208;28;125117;-59
2021/01/08 06:51:36;;;;;;;;;16.00;14.25;;;;;9.26;43.04;98438.34;6159166;28;125763;-59
2021/01/08 06:54:40;;;;;;;;;20.80;17.20;;;;;9.30;43.05;98457.53;6159148;28;126069;-59
2021/01/08 06:57:48;;;;;;;;;15.80;14.00;;;;;9.33;42.57;98465.19;6159256;28;126925;-58
2021/01/08 07:00:52;;;;;;;;;18.50;15.75;;;;;9.18;42.51;98452.09;6159434;28;126124;-59
2021/01/08 07:03:54;;;;;;;;;16.60;16.60;;;;;9.17;42.81;98460.38;6158731;28;124578;-59
2021/01/08 07:07:01;;;;;;;;;15.20;14.00;;;;;9.14;42.76;98461.63;6158229;28;124927;-59
2021/01/08 07:10:06;;;;;;;;;16.80;16.20;;;;;9.03;42.53;98462.38;6143295;28;127136;-59
2021/01/08 07:13:07;;;;;;;;;16.00;15.00;;;;;9.06;42.67;98468.13;6130029;28;128312;-59
2021/01/08 07:16:19;;;;;;;;;19.20;15.20;;;;;9.09;42.62;98472.22;6159025;28;125540;-59
2021/01/08 07:19:27;;;;;;;;;17.20;16.00;;;;;8.86;42.96;98435.25;6159008;28;125991;-59
2021/01/08 07:22:36;;;;;;;;;18.40;17.00;;;;;9.09;42.75;98473.06;6157203;28;124828;-59
2021/01/08 07:25:40;;;;;;;;;19.60;19.40;;;;;8.91;42.81;98448.84;6158210;28;127286;-58
2021/01/08 07:28:47;;;;;;;;;18.60;17.00;;;;;8.91;42.54;98448.00;6153694;28;127073;-59
2021/01/08 07:31:51;;;;;;;;;18.00;16.00;;;;;9.07;42.35;98475.16;6156571;28;127367;-59
2021/01/08 07:34:53;;;;;;;;;17.40;15.00;;;;;9.10;42.57;98476.56;6155273;28;125992;-59
2021/01/08 07:38:02;;;;;;;;;17.75;16.75;;;;;9.11;42.21;98472.84;6157704;28;125401;-59
2021/01/08 07:41:03;;;;;;;;;17.00;15.25;;;;;9.04;42.27;98451.38;6157795;28;126203;-59
2021/01/08 07:44:46;;;;;;;;;18.00;16.00;;;;;9.21;42.31;98485.78;6141541;28;125685;-59
2021/01/08 07:47:48;;;;;;;;;17.60;16.60;;;;;9.03;42.95;98444.41;6090646;28;126490;-59
2021/01/08 07:51:06;;;;;;;;;21.00;17.00;;;;;9.36;42.24;98495.13;6097222;28;125806;-58
2021/01/08 07:54:08;;;;;;;;;18.00;16.00;;;;;9.20;41.83;98459.91;6141830;28;124822;-58
2021/01/08 07:57:09;;;;;;;;;16.60;16.00;;;;;9.55;41.65;98490.56;6141517;28;126536;-58
2021/01/08 08:00:26;;;;;;;;;16.20;14.20;;;;;9.57;42.07;98491.19;6158312;28;127696;-58
2021/01/08 08:03:28;;;;;;;;;19.00;17.00;;;;;9.64;41.70;98489.22;6157484;28;127124;-59
2021/01/08 08:06:31;;;;;;;;;16.50;15.50;;;;;9.70;41.60;98500.97;6156993;28;126519;-58
2021/01/08 08:09:33;;;;;;;;;21.00;19.00;;;;;9.75;41.06;98493.03;6152187;28;126302;-59
2021/01/08 08:12:34;;;;;;;;;17.40;16.40;;;;;9.80;41.54;98493.19;6157218;28;125416;-60
2021/01/08 08:15:48;;;;;;;;;18.40;17.00;;;;;9.80;40.79;98502.09;6157654;28;124618;-60
2021/01/08 08:18:51;;;;;;;;;14.75;13.25;;;;;9.47;40.54;98458.59;6157800;28;125009;-60
2021/01/08 08:21:56;;;;;;;;;18.60;17.00;;;;;9.62;41.22;98460.91;6157933;28;126771;-60
2021/01/08 08:24:58;;;;;;;;;19.00;17.00;;;;;9.86;40.80;98500.34;6156346;28;125393;-60
2021/01/08 08:28:00;;;;;;;;;16.00;15.00;;;;;9.76;40.35;98492.81;6157252;28;125800;-58
2021/01/08 08:31:02;;;;;;;;;19.00;18.00;;;;;9.85;40.16;98504.91;6156887;28;126053;-60
2021/01/08 08:34:05;;;;;;;;;19.00;17.00;;;;;9.88;39.95;98509.84;6141603;28;126802;-58
2021/01/08 08:37:07;;;;;;;;;15.25;14.25;;;;;9.90;40.05;98504.25;6177156;28;127246;-59
2021/01/08 08:40:09;;;;;;;;;20.00;18.00;;;;;9.77;39.65;98478.31;6160695;28;125195;-58
2021/01/08 08:43:20;;;;;;;;;22.00;21.00;;;;;10.02;39.64;98507.00;6160678;28;126282;-59
2021/01/08 08:46:37;;;;;;;;;21.40;19.00;;;;;10.06;39.32;98509.00;6160515;28;125162;-58
2021/01/08 08:49:44;;;;;;;;;20.80;19.80;;;;;10.15;39.43;98507.63;6174487;28;126725;-59
2021/01/08 08:52:46;;;;;;;;;18.80;17.20;;;;;10.22;39.02;98508.38;6159741;28;126269;-60
2021/01/08 08:55:49;;;;;;;;;21.00;19.60;;;;;10.30;38.83;98507.25;6159793;28;126443;-60
2021/01/08 08:58:50;;;;;;;;;19.00;17.00;;;;;10.37;38.90;98502.56;6151885;28;126778;-59
2021/01/08 09:01:52;;;;;;;;;20.25;19.50;;;;;10.04;38.65;98451.84;6160036;28;126629;-59
2021/01/08 09:04:56;;;;;;;;;21.00;18.00;;;;;10.34;38.10;98500.34;6159377;28;125287;-59
2021/01/08 09:08:20;;;;;;;;;26.00;20.40;;;;;10.42;38.43;98505.41;6160315;28;127230;-58
2021/01/08 09:11:36;;;;;;;;;18.80;16.80;;;;;10.31;38.15;98496.22;6159703;28;125973;-58
2021/01/08 09:14:40;;;;;;;;;19.00;17.00;;;;;10.40;38.38;98513.75;6159529;28;126029;-59
2021/01/08 09:17:44;;;;;;;;;19.00;17.40;;;;;10.47;38.19;98499.31;6158695;28;126904;-59
2021/01/08 09:21:17;;;;;;;;;16.80;15.20;;;;;10.56;37.89;98496.06;6150959;28;127074;-58
2021/01/08 09:24:30;;;;;;;;;16.40;16.00;;;;;10.56;37.68;98503.31;6147292;28;123952;-59
2021/01/08 09:27:34;;;;;;;;;17.50;16.00;;;;;10.26;37.58;98453.00;6160808;28;126037;-59
2021/01/08 09:30:48;;;;;;;;;18.50;15.50;;;;;10.57;37.18;98502.28;6160417;28;126233;-59
2021/01/08 09:33:57;;;;;;;;;17.00;16.00;;;;;10.45;37.69;98491.50;6157552;28;126344;-58
2021/01/08 09:37:10;;;;;;;;;18.00;16.00;;;;;10.20;37.52;98451.25;6158953;28;126187;-59
2021/01/08 09:40:14;;;;;;;;;19.25;17.00;;;;;10.51;37.33;98497.81;6157970;28;124783;-58
2021/01/08 09:43:18;;;;;;;;;21.40;20.00;;;;;10.45;37.30;98504.97;6159739;28;124779;-58
2021/01/08 09:46:20;;;;;;;;;18.60;17.00;;;;;10.48;37.29;98501.81;6158838;28;124557;-58
2021/01/08 09:49:22;;;;;;;;;18.00;17.00;;;;;10.53;36.82;98503.81;6151643;28;126988;-58
2021/01/08 09:52:28;;;;;;;;;14.50;14.00;;;;;10.32;36.02;98464.72;6158294;28;124691;-58
2021/01/08 09:55:38;;;;;;;;;15.60;14.60;;;;;10.61;36.09;98501.59;6154136;28;127430;-58
2021/01/08 09:58:39;;;;;;;;;16.00;15.20;;;;;10.59;36.01;98500.19;6158289;28;125252;-59
2021/01/08 10:02:00;;;;;;;;;15.60;15.00;;;;;10.67;35.98;98489.06;6158960;28;125333;-59
2021/01/08 10:05:17;;;;;;;;;14.80;13.80;;;;;10.71;36.03;98495.63;6158536;28;127067;-58
2021/01/08 10:08:20;;;;;;;;;16.00;14.50;;;;;10.42;36.09;98476.59;6154566;28;127870;-59
2021/01/08 10:11:26;;;;;;;;;15.75;14.00;;;;;10.52;36.50;98496.75;6158692;28;126515;-58
2021/01/08 10:14:32;;;;;;;;;18.00;17.00;;;;;10.66;36.79;98495.50;6158743;28;125296;-58
2021/01/08 10:17:43;;;;;;;;;18.80;15.00;;;;;10.45;36.74;98483.41;6158708;28;126457;-58
2021/01/08 10:20:45;;;;;;;;;18.00;16.40;;;;;10.64;36.93;98487.66;6159357;28;126461;-58
2021/01/08 10:23:48;;;;;;;;;20.00;18.40;;;;;10.63;36.95;98488.72;6155060;28;127954;-58
2021/01/08 10:26:49;;;;;;;;;17.80;15.80;;;;;10.15;37.31;98444.88;6158719;28;124839;-58
2021/01/08 10:29:51;;;;;;;;;20.00;16.00;;;;;10.46;37.49;98486.94;6158882;28;125335;-58
2021/01/08 10:32:52;;;;;;;;;17.20;15.20;;;;;10.55;37.02;98482.84;6158424;28;125633;-58
2021/01/08 10:35:55;;;;;;;;;18.50;17.00;;;;;10.63;37.04;98485.19;6158955;28;125792;-58
2021/01/08 10:38:56;;;;;;;;;21.60;19.60;;;;;10.58;37.06;98477.81;6159039;28;126990;-58
2021/01/08 10:41:58;;;;;;;;;19.25;18.00;;;;;10.36;36.75;98434.38;6153792;28;125175;-59
2021/01/08 10:45:15;;;;;;;;;15.60;14.00;;;;;10.61;36.84;98466.53;6158307;28;124506;-58
2021/01/08 10:48:17;;;;;;;;;19.00;17.80;;;;;10.68;36.56;98471.84;6156843;28;127759;-58
2021/01/08 10:51:18;;;;;;;;;16.40;15.40;;;;;10.73;35.95;98466.56;6158880;28;126634;-58
2021/01/08 10:54:20;;;;;;;;;15.00;14.00;;;;;10.76;35.71;98464.22;6158350;28;128454;-59
2021/01/08 10:57:21;;;;;;;;;14.00;14.00;;;;;10.77;35.55;98465.03;6158047;28;127525;-58
2021/01/08 11:00:23;;;;;;;;;15.75;13.00;;;;;10.76;35.86;98461.53;6158266;28;126666;-59
2021/01/08 11:03:25;;;;;;;;;16.00;12.50;;;;;10.76;35.69;98463.41;6158196;28;127425;-58
2021/01/08 11:06:26;;;;;;;;;12.50;12.50;;;;;10.85;35.11;98460.13;6158034;28;126785;-58
2021/01/08 11:09:28;;;;;;;;;15.00;14.40;;;;;11.03;35.19;98461.91;6159098;28;126801;-59
2021/01/08 11:12:31;;;;;;;;;14.80;13.80;;;;;11.12;34.52;98452.41;6158218;28;125321;-59
2021/01/08 11:15:33;;;;;;;;;14.00;13.00;;;;;11.24;34.62;98455.06;6157964;28;125597;-58
2021/01/08 11:18:35;;;;;;;;;14.80;13.40;;;;;11.33;34.22;98459.06;6157109;28;126352;-59
2021/01/08 11:21:37;;;;;;;;;13.00;11.00;;;;;11.58;33.62;98456.09;6158629;28;127021;-58
2021/01/08 11:24:38;;;;;;;;;12.00;12.00;;;;;11.71;33.39;98431.50;6155826;28;124548;-58
2021/01/08 11:27:43;;;;;;;;;14.00;11.00;;;;;12.25;32.42;98453.63;6153132;28;127235;-58
2021/01/08 11:30:44;;;;;;;;;15.00;12.60;;;;;12.38;32.03;98451.44;6143005;28;126086;-58
2021/01/08 11:33:46;;;;;;;;;13.60;11.60;;;;;12.58;31.33;98426.63;6157510;28;125678;-58
2021/01/08 11:36:48;;;;;;;;;12.00;12.00;;;;;12.88;30.84;98424.41;6157574;28;124989;-59
2021/01/08 11:39:49;;;;;;;;;10.25;9.25;;;;;13.73;29.85;98440.19;6157881;28;125214;-59
2021/01/08 11:42:51;;;;;;;;;11.00;10.40;;;;;14.51;29.29;98448.94;6152547;28;126970;-59
2021/01/08 11:45:52;;;;;;;;;12.80;11.80;;;;;14.59;27.64;98389.59;6157197;28;126725;-59
2021/01/08 11:48:55;;;;;;;;;12.00;10.80;;;;;15.04;27.09;98418.13;6166418;28;124291;-59
2021/01/08 11:51:57;;;;;;;;;9.60;9.00;;;;;15.24;26.68;98440.00;6157586;28;127680;-59
2021/01/08 11:54:58;;;;;;;;;10.80;9.00;;;;;15.32;26.81;98446.81;6157167;28;126018;-59
2021/01/08 11:58:00;;;;;;;;;11.50;9.50;;;;;15.07;26.33;98420.31;6149709;28;126742;-59
2021/01/08 12:01:01;;;;;;;;;12.00;11.00;;;;;15.04;26.82;98435.25;6148618;28;124638;-59
2021/01/08 12:04:03;;;;;;;;;9.60;9.60;;;;;14.74;27.00;98441.25;6140804;28;125502;-59
2021/01/08 12:07:05;;;;;;;;;14.00;12.00;;;;;14.58;27.31;98441.38;6157838;28;125284;-59
2021/01/08 12:10:20;;;;;;;;;12.00;11.00;;;;;14.32;27.61;98443.00;6161788;28;126409;-59
2021/01/08 12:13:26;;;;;;;;;15.40;12.00;;;;;14.12;28.26;98442.81;6161275;28;124366;-59
2021/01/08 12:16:32;;;;;;;;;13.80;12.20;;;;;14.04;28.02;98448.69;6162051;28;128497;-58
2021/01/08 12:19:36;;;;;;;;;12.00;11.00;;;;;14.24;27.86;98441.59;6162140;28;124191;-59
2021/01/08 12:22:38;;;;;;;;;11.00;9.60;;;;;14.69;26.24;98443.13;6161248;28;126497;-59
2021/01/08 12:25:41;;;;;;;;;11.60;10.00;;;;;15.59;25.69;98434.75;6160444;28;126830;-59
2021/01/08 12:28:43;;;;;;;;;13.00;11.40;;;;;16.52;24.80;98437.44;6160885;28;125200;-59
2021/01/08 12:31:44;;;;;;;;;13.20;12.20;;;;;17.06;23.49;98445.91;6161104;28;126499;-59
2021/01/08 12:34:46;;;;;;;;;11.40;11.00;;;;;16.87;23.72;98442.94;6161123;28;126462;-59
2021/01/08 12:37:49;;;;;;;;;9.00;8.40;;;;;15.93;23.50;98399.03;6160834;28;124744;-59
2021/01/08 12:40:50;;;;;;;;;9.00;9.00;;;;;15.71;24.51;98437.25;6161547;28;126431;-60
2021/01/08 12:43:57;;;;;;;;;10.00;8.00;;;;;14.99;24.96;98410.78;6161115;28;127863;-59
2021/01/08 12:47:00;;;;;;;;;11.60;10.80;;;;;14.70;25.95;98437.44;6160618;28;126447;-58
2021/01/08 12:50:04;;;;;;;;;10.25;10.00;;;;;14.29;26.70;98430.78;6163383;28;127483;-58
2021/01/08 12:53:05;;;;;;;;;13.00;11.00;;;;;13.85;27.24;98434.66;6161443;28;124512;-58
2021/01/08 12:56:07;;;;;;;;;11.60;11.60;;;;;13.47;27.90;98423.91;6161053;28;125752;-58
2021/01/08 12:59:08;;;;;;;;;10.80;10.00;;;;;13.23;27.95;98431.44;6160304;28;125469;-59
2021/01/08 13:02:10;;;;;;;;;9.80;9.00;;;;;13.00;28.33;98427.81;6160995;28;126364;-59
2021/01/08 13:05:12;;;;;;;;;9.60;8.00;;;;;12.83;28.19;98437.84;6161082;28;126547;-58
2021/01/08 13:08:15;;;;;;;;;11.60;9.00;;;;;12.38;28.33;98396.56;6161502;28;125690;-59
2021/01/08 13:11:17;;;;;;;;;10.00;9.00;;;;;12.57;28.41;98441.22;6160584;28;124465;-59
2021/01/08 13:14:18;;;;;;;;;9.00;9.00;;;;;12.59;28.67;98433.69;6172724;28;127142;-59
2021/01/08 13:17:20;;;;;;;;;9.60;9.00;;;;;12.54;29.00;98436.31;6159927;28;127046;-59
2021/01/08 13:20:21;;;;;;;;;11.75;8.75;;;;;12.53;28.78;98440.88;6145317;28;126680;-59
2021/01/08 13:23:23;;;;;;;;;10.00;10.00;;;;;12.54;29.14;98441.72;6160144;28;126667;-59
2021/01/08 13:26:26;;;;;;;;;9.00;9.00;;;;;12.46;29.12;98442.13;6160512;28;127934;-59
2021/01/08 13:29:27;;;;;;;;;9.60;8.60;;;;;12.35;29.34;98441.13;6154177;28;125089;-59
2021/01/08 13:32:29;;;;;;;;;11.80;10.00;;;;;11.52;29.47;98306.69;6145101;28;127872;-59
2021/01/08 13:35:30;;;;;;;;;11.50;10.00;;;;;12.38;29.89;98445.22;6160519;28;127404;-58
2021/01/08 13:38:32;;;;;;;;;16.00;13.40;;;;;12.49;29.42;98447.84;6160016;28;125470;-59
2021/01/08 13:41:34;;;;;;;;;11.00;10.00;;;;;12.34;29.70;98411.63;6160219;28;125247;-58
2021/01/08 13:44:36;;;;;;;;;12.00;12.00;;;;;12.54;29.19;98445.25;6153857;28;125911;-58
2021/01/08 13:47:41;;;;;;;;;13.00;12.00;;;;;12.57;29.40;98452.84;6143317;28;124673;-61
2021/01/08 13:50:42;;;;;;;;;12.00;11.00;;;;;12.55;29.19;98452.28;6160246;28;126741;-59
2021/01/08 13:53:44;;;;;;;;;13.00;11.75;;;;;12.48;29.66;98454.31;6142388;28;126750;-58
2021/01/08 13:56:46;;;;;;;;;11.60;11.00;;;;;12.46;29.18;98455.66;6159738;28;126505;-58
2021/01/08 13:59:48;;;;;;;;;12.00;12.00;;;;;12.48;29.16;98454.31;6159854;28;127108;-58
2021/01/08 14:02:49;;;;;;;;;10.80;8.80;;;;;12.43;28.85;98458.81;6158031;28;126490;-58